MMNL/NLD METAR and TAF weather

Enter ICAO airport designator
Station Type Date Time Source
MMNL METAR 2019/10/22 16:40 UTC NOAA

MMNL 221640Z 11005KT 8SM FEW080 24/06 A3020 RMK 8/070


Station Type Date Time Source
MMNL Decoded METAR 2019/10/22 16:40 UTC NOAA

Nuevo Laredo International , Mexico (MMNL) 27-26N 099-34W
Oct 22, 2019 - 12:40 PM EDT / 2019.10.22 1640 UTC
Wind: from the ESE (110 degrees) at 6 MPH (5 KT):0
Visibility: 8 mile(s):0
Sky conditions: mostly clear
Temperature: 75 F (24 C)
Dew Point: 42 F (6 C)
Relative Humidity: 31%
Pressure (altimeter): 30.2 in. Hg (1022 hPa)
ob: MMNL 221640Z 11005KT 8SM FEW080 24/06 A3020 RMK 8/070
cycle: 16

Station Type Date Time Source
MMNL TAF 2019/10/22 18:09 UTC NOAA

TAF MMNL 221703Z 2218/2318 12010KT P6SM SKC
FM231500 12015KT P6SM SCT020

Example: see airport list